KMIA/MIA METAR and TAF weather

Enter ICAO airport designator
Station Type Date Time Source
KMIA METAR 2021/03/01 09:53 UTC NOAA

KMIA 010953Z 14009G17KT 10SM FEW022 FEW035 24/21 A3007 RMK AO2 SLP182 T02440206 $


Station Type Date Time Source
KMIA Decoded METAR 2021/03/01 09:53 UTC NOAA

MIAMI INTERNATIONAL AIRPORT , FL, United States (KMIA) 25-47N 080-19W 8M
Mar 01, 2021 - 04:53 AM EST / 2021.03.01 0953 UTC
Wind: from the SE (140 degrees) at 10 MPH (9 KT) gusting to 20 MPH (17 KT):0
Visibility: 10 mile(s):0
Sky conditions: mostly clear
Temperature: 75.9 F (24.4 C)
Dew Point: 69.1 F (20.6 C)
Relative Humidity: 79%
Pressure (altimeter): 30.07 in. Hg (1018 hPa)
ob: KMIA 010953Z 14009G17KT 10SM FEW022 FEW035 24/21 A3007 RMK AO2 SLP182 T02440206
cycle: 10

Station Type Date Time Source
KMIA TAF 2021/03/01 09:59 UTC NOAA

TAF
AMD KMIA 010859Z 0109/0212 12010KT P6SM SCT030 BKN040
FM011400 16012KT P6SM SCT030 BKN050
FM020200 14005KT P6SM SCT030

Example: see airport list